createdAt,value
2022-07-31T00:01:00.612Z,19.72
2022-07-31T00:03:29.075Z,19.75
2022-07-31T00:05:57.387Z,19.76
2022-07-31T00:08:26.389Z,19.79
2022-07-31T00:10:54.943Z,19.81
2022-07-31T00:13:56.627Z,19.83
2022-07-31T00:16:12.556Z,19.85
2022-07-31T00:18:40.767Z,19.88
2022-07-31T00:21:09.019Z,19.90
2022-07-31T00:23:37.699Z,19.91
2022-07-31T00:26:06.035Z,19.91
2022-07-31T00:28:34.484Z,19.89
2022-07-31T00:31:03.966Z,19.89
2022-07-31T00:33:32.308Z,19.89
2022-07-31T00:36:00.524Z,19.89
2022-07-31T00:38:28.860Z,19.89
2022-07-31T00:40:58.011Z,19.90
2022-07-31T00:43:27.443Z,19.92
2022-07-31T00:45:59.658Z,19.95
2022-07-31T00:48:28.151Z,19.97
2022-07-31T00:50:56.809Z,20.00
2022-07-31T00:53:25.476Z,20.01
2022-07-31T00:55:53.813Z,20.03
2022-07-31T00:58:22.051Z,20.04
2022-07-31T01:00:51.671Z,20.05
2022-07-31T01:03:20.606Z,20.06
2022-07-31T01:05:48.816Z,20.06
2022-07-31T01:08:17.463Z,20.07
2022-07-31T01:11:02.198Z,20.09
2022-07-31T01:13:45.967Z,20.10
2022-07-31T01:16:15.579Z,20.11
2022-07-31T01:18:44.602Z,20.11
2022-07-31T01:21:20.983Z,20.11
2022-07-31T01:24:12.363Z,20.12
2022-07-31T01:27:01.972Z,20.10
2022-07-31T01:29:40.215Z,20.10
2022-07-31T01:32:15.060Z,20.08
2022-07-31T01:34:57.581Z,20.07
2022-07-31T01:37:45.203Z,20.06
2022-07-31T01:40:23.029Z,20.05
2022-07-31T01:42:58.459Z,20.04
2022-07-31T01:45:29.203Z,20.01
2022-07-31T01:48:01.533Z,19.99
2022-07-31T01:50:42.934Z,19.97
2022-07-31T01:53:20.419Z,19.94
2022-07-31T01:56:02.901Z,19.92
2022-07-31T01:58:40.034Z,19.89
2022-07-31T02:01:45.341Z,19.84
2022-07-31T02:04:16.605Z,19.82
2022-07-31T02:06:47.750Z,19.80
2022-07-31T02:09:19.430Z,19.76
2022-07-31T02:11:54.764Z,19.73
2022-07-31T02:14:25.748Z,19.70
2022-07-31T02:16:55.592Z,19.67
2022-07-31T02:19:29.575Z,19.63
2022-07-31T02:22:00.743Z,19.59
2022-07-31T02:24:30.402Z,19.55
2022-07-31T02:26:59.129Z,19.51
2022-07-31T02:29:32.642Z,19.46
2022-07-31T02:32:03.595Z,19.42
2022-07-31T02:34:35.824Z,19.39
2022-07-31T02:37:05.224Z,19.34
2022-07-31T02:39:35.527Z,19.31
2022-07-31T02:42:05.477Z,19.26
2022-07-31T02:44:35.059Z,19.22
2022-07-31T02:47:05.576Z,19.18
2022-07-31T02:49:34.982Z,19.12
2022-07-31T02:52:07.454Z,19.06
2022-07-31T02:54:40.899Z,19.02
2022-07-31T02:57:09.498Z,18.98
2022-07-31T02:59:38.665Z,18.93
2022-07-31T03:02:07.492Z,18.90
2022-07-31T03:04:42.477Z,18.86
2022-07-31T03:07:11.445Z,18.83
2022-07-31T03:09:39.738Z,18.81
2022-07-31T03:12:26.792Z,18.79
2022-07-31T03:14:56.922Z,18.79
2022-07-31T03:17:25.223Z,18.78
2022-07-31T03:20:08.224Z,18.76
2022-07-31T03:22:37.338Z,18.75
2022-07-31T03:25:06.453Z,18.77
2022-07-31T03:27:35.152Z,18.77
2022-07-31T03:30:05.103Z,18.77
2022-07-31T03:32:35.758Z,18.78
2022-07-31T03:35:04.679Z,18.79
2022-07-31T03:37:33.293Z,18.82
2022-07-31T03:40:01.555Z,18.84
2022-07-31T03:42:30.201Z,18.84
2022-07-31T03:44:59.268Z,18.84
2022-07-31T03:47:27.595Z,18.86
2022-07-31T03:49:56.138Z,18.87
2022-07-31T03:52:24.602Z,18.87
2022-07-31T03:54:53.266Z,18.89
2022-07-31T03:57:26.144Z,18.93
2022-07-31T03:59:58.373Z,18.95
2022-07-31T04:02:29.516Z,19.00
2022-07-31T04:05:10.493Z,19.04
2022-07-31T04:07:41.362Z,19.07
2022-07-31T04:10:10.201Z,19.11
2022-07-31T04:12:38.520Z,19.16
2022-07-31T04:15:07.513Z,19.21
2022-07-31T04:17:37.217Z,19.23
2022-07-31T04:20:08.891Z,19.26
2022-07-31T04:22:38.021Z,19.30
2022-07-31T04:25:13.935Z,19.34
2022-07-31T04:27:54.790Z,19.39
2022-07-31T04:30:23.284Z,19.43
2022-07-31T04:32:51.561Z,19.46
2022-07-31T04:35:23.896Z,19.51
2022-07-31T04:37:52.311Z,19.57
2022-07-31T04:40:26.464Z,19.63
2022-07-31T04:42:55.408Z,19.68
2022-07-31T04:45:23.629Z,19.71
2022-07-31T04:47:52.227Z,19.76
2022-07-31T04:50:21.247Z,19.81
2022-07-31T04:53:02.385Z,19.85
2022-07-31T04:55:35.818Z,19.90
2022-07-31T04:58:03.999Z,19.95
2022-07-31T05:00:32.383Z,20.00
2022-07-31T05:03:01.035Z,20.06
2022-07-31T05:05:29.790Z,20.11
2022-07-31T05:07:57.974Z,20.17
2022-07-31T05:10:53.053Z,20.22
2022-07-31T05:13:21.744Z,20.27
2022-07-31T05:15:50.305Z,20.33
2022-07-31T05:18:19.153Z,20.38
2022-07-31T05:21:20.661Z,20.44
2022-07-31T05:24:07.412Z,20.48
2022-07-31T05:26:59.169Z,20.54
2022-07-31T05:29:27.526Z,20.63
2022-07-31T05:32:09.674Z,20.71
2022-07-31T05:34:38.944Z,20.76
2022-07-31T05:37:07.224Z,20.81
2022-07-31T05:39:37.748Z,20.85
2022-07-31T05:42:25.187Z,20.95
2022-07-31T05:45:12.420Z,21.19
2022-07-31T05:47:41.274Z,21.38
2022-07-31T05:50:12.223Z,21.54
2022-07-31T05:52:40.648Z,21.55
2022-07-31T05:55:43.811Z,21.59
2022-07-31T05:58:34.141Z,21.66
2022-07-31T06:01:03.008Z,21.70
2022-07-31T06:03:51.532Z,21.76
2022-07-31T06:06:42.633Z,21.83
2022-07-31T06:09:10.835Z,21.91
2022-07-31T06:11:42.827Z,21.99
2022-07-31T06:14:11.290Z,22.06
2022-07-31T06:17:05.808Z,22.11
2022-07-31T06:19:35.694Z,21.95
2022-07-31T06:22:04.798Z,21.69
2022-07-31T06:24:33.531Z,21.48
2022-07-31T06:27:03.671Z,21.32
2022-07-31T06:29:42.163Z,21.22
2022-07-31T06:32:12.120Z,21.13
2022-07-31T06:34:41.942Z,21.07
2022-07-31T06:37:11.502Z,21.03
2022-07-31T06:39:54.812Z,20.99
2022-07-31T06:42:45.306Z,20.97
2022-07-31T06:45:51.421Z,20.96
2022-07-31T06:48:38.902Z,20.97
2022-07-31T06:51:30.241Z,20.98
2022-07-31T06:54:00.773Z,21.00
2022-07-31T06:56:30.730Z,21.02
2022-07-31T06:58:59.931Z,21.04
2022-07-31T07:01:29.081Z,21.08
2022-07-31T07:03:57.947Z,21.12
2022-07-31T07:06:27.449Z,21.16
2022-07-31T07:08:56.343Z,21.18
2022-07-31T07:11:25.064Z,21.22
2022-07-31T07:13:53.390Z,21.26
2022-07-31T07:16:21.990Z,21.30
2022-07-31T07:18:50.841Z,21.36
2022-07-31T07:21:19.384Z,21.43
2022-07-31T07:23:48.253Z,21.50
2022-07-31T07:26:20.698Z,21.56
2022-07-31T07:28:50.100Z,21.62
2022-07-31T07:31:19.794Z,21.66
2022-07-31T07:33:49.329Z,21.70
2022-07-31T07:36:24.732Z,21.75
2022-07-31T07:39:11.049Z,21.81
2022-07-31T07:41:39.647Z,21.85
2022-07-31T07:44:08.102Z,21.90
2022-07-31T07:46:36.480Z,21.96
2022-07-31T07:49:06.852Z,22.02
2022-07-31T07:51:59.633Z,22.07
2022-07-31T07:54:37.920Z,22.12
2022-07-31T07:57:20.811Z,22.16
2022-07-31T08:00:11.015Z,22.21
2022-07-31T08:03:47.439Z,22.25
2022-07-31T08:05:39.347Z,22.31
2022-07-31T08:08:08.160Z,22.35
2022-07-31T08:11:01.339Z,22.39
2022-07-31T08:13:40.964Z,22.44
2022-07-31T08:16:28.219Z,22.48
2022-07-31T08:18:59.368Z,22.50
2022-07-31T08:21:29.091Z,22.53
2022-07-31T08:23:57.817Z,22.57
2022-07-31T08:26:27.369Z,22.60
2022-07-31T08:28:57.022Z,22.64
2022-07-31T08:31:27.780Z,22.71
2022-07-31T08:34:30.793Z,22.76
2022-07-31T08:38:02.641Z,22.78
2022-07-31T08:39:52.608Z,22.81
2022-07-31T08:42:21.398Z,22.85
2022-07-31T08:44:49.788Z,22.90
2022-07-31T08:47:22.578Z,22.96
2022-07-31T08:49:52.721Z,22.99
2022-07-31T08:52:25.868Z,22.97
2022-07-31T08:55:07.937Z,22.96
2022-07-31T08:57:37.470Z,22.97
2022-07-31T09:00:13.185Z,22.96
2022-07-31T09:02:42.013Z,22.96
2022-07-31T09:05:41.824Z,22.99
2022-07-31T09:08:14.636Z,23.04
2022-07-31T09:10:49.645Z,23.11
2022-07-31T09:13:19.429Z,23.18
2022-07-31T09:15:51.157Z,23.25
2022-07-31T09:18:25.543Z,23.33
2022-07-31T09:21:07.372Z,23.39
2022-07-31T09:23:46.656Z,23.41
2022-07-31T09:26:15.628Z,23.45
2022-07-31T09:28:53.539Z,23.52
2022-07-31T09:31:22.290Z,23.57
2022-07-31T09:34:02.428Z,23.61
2022-07-31T09:36:42.786Z,23.66
2022-07-31T09:39:30.182Z,23.71
2022-07-31T09:42:20.153Z,23.75
2022-07-31T09:45:23.466Z,23.81
2022-07-31T09:48:14.369Z,23.86
2022-07-31T09:51:03.294Z,23.96
2022-07-31T09:53:47.533Z,24.07
2022-07-31T09:56:36.328Z,24.22
2022-07-31T09:59:06.908Z,24.29
2022-07-31T10:01:36.654Z,24.39
2022-07-31T10:04:07.078Z,24.54
2022-07-31T10:06:36.653Z,24.73
2022-07-31T10:09:06.876Z,24.94
2022-07-31T10:12:17.676Z,25.21
2022-07-31T10:14:48.992Z,25.39
2022-07-31T10:17:35.870Z,25.50
2022-07-31T10:20:26.589Z,25.65
2022-07-31T10:23:33.504Z,25.83
2022-07-31T10:26:04.584Z,26.03
2022-07-31T10:28:36.661Z,26.25
2022-07-31T10:31:06.298Z,26.49
2022-07-31T10:33:44.753Z,26.65
2022-07-31T10:36:46.925Z,26.85
2022-07-31T10:39:43.932Z,27.07
2022-07-31T10:42:48.208Z,27.27
2022-07-31T10:45:17.541Z,27.38
2022-07-31T10:48:12.285Z,27.47
2022-07-31T10:51:03.856Z,27.57
2022-07-31T10:53:58.866Z,27.70
2022-07-31T10:57:04.730Z,27.80
2022-07-31T10:59:44.998Z,27.91
2022-07-31T11:02:37.516Z,28.03
2022-07-31T11:05:24.002Z,28.12
2022-07-31T11:08:15.381Z,28.20
2022-07-31T11:10:57.307Z,28.28
2022-07-31T11:13:45.702Z,28.40
2022-07-31T11:16:34.929Z,28.49
2022-07-31T11:19:41.040Z,28.43
2022-07-31T11:22:31.682Z,28.35
2022-07-31T11:25:01.777Z,28.28
2022-07-31T11:27:34.360Z,28.23
2022-07-31T11:30:12.441Z,28.24
2022-07-31T11:32:48.234Z,28.32
2022-07-31T11:35:30.944Z,28.41
2022-07-31T11:37:59.965Z,28.57
2022-07-31T11:40:28.783Z,28.71
2022-07-31T11:45:52.725Z,28.67
2022-07-31T11:48:22.460Z,28.47
2022-07-31T11:50:51.544Z,28.26
2022-07-31T11:53:21.413Z,28.02
2022-07-31T11:55:51.435Z,27.78
2022-07-31T11:58:21.880Z,27.58
2022-07-31T12:00:59.495Z,27.38
2022-07-31T12:03:35.041Z,27.15
2022-07-31T12:06:05.441Z,26.95
2022-07-31T12:08:35.516Z,26.76
2022-07-31T12:11:07.921Z,26.57
2022-07-31T12:13:36.245Z,26.30
2022-07-31T12:16:09.631Z,26.05
2022-07-31T12:18:52.490Z,25.88
2022-07-31T12:21:21.482Z,25.79
2022-07-31T12:23:52.472Z,25.77
2022-07-31T12:26:27.233Z,25.72
2022-07-31T12:29:04.513Z,25.66
2022-07-31T12:31:45.665Z,25.63
2022-07-31T12:34:29.867Z,25.62
2022-07-31T12:37:04.307Z,25.60
2022-07-31T12:39:53.961Z,25.57
2022-07-31T12:42:30.622Z,25.49
2022-07-31T12:45:18.145Z,25.42
2022-07-31T12:47:54.365Z,25.35
2022-07-31T12:50:24.145Z,25.33
2022-07-31T12:52:53.735Z,25.27
2022-07-31T12:55:22.738Z,25.20
2022-07-31T12:57:52.235Z,25.14
2022-07-31T13:00:23.614Z,25.10
2022-07-31T13:02:53.312Z,25.11
2022-07-31T13:05:22.886Z,25.14
2022-07-31T13:07:52.623Z,25.20
2022-07-31T13:10:24.659Z,25.24
2022-07-31T13:12:53.548Z,25.29
2022-07-31T13:15:30.044Z,25.33
2022-07-31T13:18:02.119Z,25.39
2022-07-31T13:20:31.344Z,25.45
2022-07-31T13:22:59.837Z,25.50
2022-07-31T13:25:32.778Z,25.54
2022-07-31T13:28:01.345Z,25.59
2022-07-31T13:30:29.517Z,25.72
2022-07-31T13:32:57.873Z,26.01
2022-07-31T13:35:28.242Z,26.39
2022-07-31T13:37:57.754Z,26.70
2022-07-31T13:40:45.420Z,26.97
2022-07-31T13:43:13.987Z,27.21
2022-07-31T13:45:42.308Z,27.55
2022-07-31T13:48:10.849Z,28.11
2022-07-31T13:50:41.979Z,28.77
2022-07-31T13:53:10.491Z,29.37
2022-07-31T13:55:39.176Z,29.78
2022-07-31T13:58:08.618Z,29.97
2022-07-31T14:00:37.306Z,29.97
2022-07-31T14:03:05.615Z,29.74
2022-07-31T14:05:40.199Z,29.43
2022-07-31T14:08:32.613Z,29.10
2022-07-31T14:10:58.186Z,28.71
2022-07-31T14:13:27.177Z,28.36
2022-07-31T14:15:55.440Z,28.10
2022-07-31T14:18:24.198Z,27.87
2022-07-31T14:20:52.688Z,27.68
2022-07-31T14:23:27.805Z,27.52
2022-07-31T14:26:05.263Z,27.32
2022-07-31T14:28:33.638Z,27.16
2022-07-31T14:31:01.908Z,27.11
2022-07-31T14:33:30.286Z,27.16
2022-07-31T14:35:58.539Z,27.24
2022-07-31T14:38:27.395Z,27.31
2022-07-31T14:40:56.531Z,27.35
2022-07-31T14:43:24.985Z,27.36
2022-07-31T14:45:53.176Z,27.33
2022-07-31T14:48:22.205Z,27.29
2022-07-31T14:50:50.418Z,27.21
2022-07-31T14:53:18.668Z,27.08
2022-07-31T14:55:47.408Z,26.92
2022-07-31T14:58:15.942Z,26.78
2022-07-31T15:00:44.567Z,26.60
2022-07-31T15:03:12.951Z,26.47
2022-07-31T15:06:39.591Z,26.39
2022-07-31T15:08:30.338Z,26.35
2022-07-31T15:10:58.769Z,26.52
2022-07-31T15:13:27.251Z,26.84
2022-07-31T15:15:55.477Z,27.21
2022-07-31T15:18:25.722Z,27.61
2022-07-31T15:20:54.736Z,28.04
2022-07-31T15:23:23.064Z,28.42
2022-07-31T15:25:51.702Z,28.79
2022-07-31T15:28:20.104Z,29.15
2022-07-31T15:30:48.719Z,29.45
2022-07-31T15:33:17.083Z,29.70
2022-07-31T15:35:47.792Z,29.98
2022-07-31T15:38:16.217Z,30.28
2022-07-31T15:40:47.162Z,30.55
2022-07-31T15:43:18.916Z,30.74
2022-07-31T15:45:47.162Z,30.84
2022-07-31T15:48:15.739Z,30.95
2022-07-31T15:50:44.096Z,31.05
2022-07-31T15:53:12.411Z,31.11
2022-07-31T15:55:40.822Z,31.13
2022-07-31T15:58:09.124Z,31.10
2022-07-31T16:00:37.446Z,31.05
2022-07-31T16:03:06.287Z,31.02
2022-07-31T16:05:38.761Z,31.03
2022-07-31T16:08:30.190Z,31.03
2022-07-31T16:10:57.365Z,31.02
2022-07-31T16:13:25.639Z,30.98
2022-07-31T16:15:54.141Z,30.91
2022-07-31T16:18:22.613Z,30.81
2022-07-31T16:20:50.973Z,30.74
2022-07-31T16:23:19.243Z,30.70
2022-07-31T16:25:47.650Z,30.62
2022-07-31T16:28:16.647Z,30.52
2022-07-31T16:30:45.962Z,30.42
2022-07-31T16:33:14.599Z,30.30
2022-07-31T16:35:43.078Z,30.15
2022-07-31T16:38:11.325Z,30.02
2022-07-31T16:40:39.602Z,29.93
2022-07-31T16:43:49.625Z,29.85
2022-07-31T16:45:56.822Z,29.76
2022-07-31T16:48:25.520Z,29.56
2022-07-31T16:50:55.108Z,29.41
2022-07-31T16:54:11.673Z,29.29
2022-07-31T16:56:15.083Z,29.15
2022-07-31T16:58:44.422Z,29.04
2022-07-31T17:01:53.753Z,28.90
2022-07-31T17:04:04.008Z,28.84
2022-07-31T17:06:37.961Z,28.81
2022-07-31T17:09:16.868Z,28.82
2022-07-31T17:11:48.868Z,28.81
2022-07-31T17:14:18.791Z,28.77
2022-07-31T17:16:49.422Z,28.68
2022-07-31T17:19:36.197Z,28.54
2022-07-31T17:22:11.813Z,28.37
2022-07-31T17:24:51.278Z,28.21
2022-07-31T17:27:21.118Z,28.10
2022-07-31T17:29:49.457Z,27.98
2022-07-31T17:32:18.106Z,27.83
2022-07-31T17:34:48.163Z,27.66
2022-07-31T17:37:19.606Z,27.52
2022-07-31T17:39:48.235Z,27.36
2022-07-31T17:42:18.183Z,27.22
2022-07-31T17:44:55.901Z,27.04
2022-07-31T17:47:26.058Z,26.84
2022-07-31T17:49:54.702Z,26.66
2022-07-31T17:52:23.650Z,26.48
2022-07-31T17:54:52.539Z,26.26
2022-07-31T17:57:22.911Z,26.03
2022-07-31T17:59:52.456Z,25.79
2022-07-31T18:02:20.927Z,25.55
2022-07-31T18:04:49.471Z,25.24
2022-07-31T18:07:19.783Z,24.94
2022-07-31T18:09:48.212Z,24.61
2022-07-31T18:12:16.890Z,24.28
2022-07-31T18:14:48.395Z,23.95
2022-07-31T18:17:16.989Z,23.63
2022-07-31T18:19:46.485Z,23.34
2022-07-31T18:22:15.262Z,23.05
2022-07-31T18:24:43.662Z,22.80
2022-07-31T18:27:12.123Z,22.55
2022-07-31T18:29:40.859Z,22.32
2022-07-31T18:32:09.426Z,22.11
2022-07-31T18:34:37.820Z,21.90
2022-07-31T18:37:06.372Z,21.69
2022-07-31T18:39:34.561Z,21.49
2022-07-31T18:42:18.154Z,21.24
2022-07-31T18:44:47.424Z,21.04
2022-07-31T18:47:15.694Z,20.85
2022-07-31T18:51:01.467Z,20.65
2022-07-31T18:52:32.700Z,20.42
2022-07-31T18:55:01.469Z,20.22
2022-07-31T18:57:30.702Z,20.02
2022-07-31T18:59:58.899Z,19.86
2022-07-31T19:02:28.550Z,19.70
2022-07-31T19:04:57.263Z,19.55
2022-07-31T19:07:27.605Z,19.40
2022-07-31T19:09:56.689Z,19.24
2022-07-31T19:12:25.252Z,19.08
2022-07-31T19:14:53.761Z,18.93
2022-07-31T19:17:22.692Z,18.78
2022-07-31T19:20:01.434Z,18.71
2022-07-31T19:22:31.325Z,18.90
2022-07-31T19:24:59.864Z,19.10
2022-07-31T19:27:48.540Z,19.21
2022-07-31T19:30:16.857Z,19.29
2022-07-31T19:32:45.139Z,19.34
2022-07-31T19:35:13.329Z,19.35
2022-07-31T19:37:41.997Z,19.37
2022-07-31T19:40:10.675Z,19.38
2022-07-31T19:42:39.703Z,19.39
2022-07-31T19:45:10.298Z,19.38
2022-07-31T19:47:38.954Z,19.37
2022-07-31T19:50:07.825Z,19.37
2022-07-31T19:52:36.455Z,19.35
2022-07-31T19:55:06.601Z,19.32
2022-07-31T19:57:38.341Z,19.30
2022-07-31T20:00:09.353Z,19.28
2022-07-31T20:02:38.564Z,19.25
2022-07-31T20:05:10.708Z,19.23
2022-07-31T20:07:38.956Z,19.26
2022-07-31T20:10:10.263Z,19.24
2022-07-31T20:12:39.885Z,19.20
2022-07-31T20:15:11.689Z,19.17
2022-07-31T20:17:40.617Z,19.16
2022-07-31T20:20:15.682Z,19.13
2022-07-31T20:22:44.717Z,19.06
2022-07-31T20:25:20.341Z,19.08
2022-07-31T20:27:50.722Z,19.06
2022-07-31T20:30:22.050Z,19.00
2022-07-31T20:32:54.248Z,18.94
2022-07-31T20:35:31.157Z,18.89
2022-07-31T20:38:15.646Z,18.83
2022-07-31T20:40:48.279Z,18.79
2022-07-31T20:43:25.496Z,18.73
2022-07-31T20:45:57.574Z,18.68
2022-07-31T20:48:35.124Z,18.63
2022-07-31T20:51:05.083Z,18.65
2022-07-31T20:53:33.326Z,18.71
2022-07-31T20:56:01.631Z,18.66
2022-07-31T20:58:29.925Z,18.59
2022-07-31T21:00:58.512Z,18.52
2022-07-31T21:03:27.092Z,18.46
2022-07-31T21:05:55.339Z,18.42
2022-07-31T21:08:23.534Z,18.43
2022-07-31T21:10:51.969Z,18.55
2022-07-31T21:13:20.177Z,18.52
2022-07-31T21:15:48.549Z,18.44
2022-07-31T21:18:19.219Z,18.39
2022-07-31T21:20:51.040Z,18.35
2022-07-31T21:23:22.701Z,18.31
2022-07-31T21:25:52.932Z,18.28
2022-07-31T21:28:22.467Z,18.25
2022-07-31T21:30:53.810Z,18.23
2022-07-31T21:33:23.758Z,18.20
2022-07-31T21:35:53.197Z,18.15
2022-07-31T21:38:22.032Z,18.11
2022-07-31T21:40:50.722Z,18.09
2022-07-31T21:43:22.807Z,18.07
2022-07-31T21:45:57.460Z,18.05
2022-07-31T21:48:32.003Z,18.03
2022-07-31T21:51:01.143Z,18.01
2022-07-31T21:53:29.439Z,17.98
2022-07-31T21:56:02.173Z,17.95
2022-07-31T21:58:30.393Z,17.94
2022-07-31T22:00:58.709Z,17.94
2022-07-31T22:03:27.250Z,17.95
2022-07-31T22:06:14.632Z,18.10
2022-07-31T22:08:43.609Z,18.14
2022-07-31T22:11:12.333Z,18.08
2022-07-31T22:13:40.610Z,18.01
2022-07-31T22:16:09.526Z,17.94
2022-07-31T22:18:38.164Z,17.89
2022-07-31T22:21:08.505Z,17.84
2022-07-31T22:23:37.316Z,17.81
2022-07-31T22:26:05.957Z,17.78
2022-07-31T22:28:34.991Z,17.75
2022-07-31T22:31:03.434Z,17.78
2022-07-31T22:33:31.776Z,17.94
2022-07-31T22:36:02.727Z,18.03
2022-07-31T22:38:31.388Z,17.97
2022-07-31T22:41:00.694Z,17.88
2022-07-31T22:44:10.831Z,17.86
2022-07-31T22:46:18.422Z,17.89
2022-07-31T22:48:47.153Z,17.87
2022-07-31T22:51:15.889Z,18.01
2022-07-31T22:53:44.543Z,18.11
2022-07-31T22:56:18.429Z,18.02
2022-07-31T22:58:46.851Z,17.92
2022-07-31T23:01:15.047Z,17.99
2022-07-31T23:03:43.300Z,18.11
2022-07-31T23:06:30.749Z,18.19
2022-07-31T23:09:01.815Z,18.25
2022-07-31T23:11:30.585Z,18.33
2022-07-31T23:13:58.951Z,18.31
2022-07-31T23:16:27.433Z,18.22
2022-07-31T23:18:56.130Z,18.26
2022-07-31T23:21:24.919Z,18.26
2022-07-31T23:23:53.584Z,18.30
2022-07-31T23:26:24.425Z,18.32
2022-07-31T23:28:54.955Z,18.33
2022-07-31T23:31:24.475Z,18.32
2022-07-31T23:33:53.599Z,18.35
2022-07-31T23:36:22.282Z,18.34
2022-07-31T23:38:50.642Z,18.22
2022-07-31T23:41:37.962Z,18.08
2022-07-31T23:44:06.607Z,17.96
2022-07-31T23:46:40.279Z,17.87
2022-07-31T23:49:09.769Z,17.80
2022-07-31T23:51:38.991Z,17.75
2022-07-31T23:54:08.174Z,17.70
2022-07-31T23:56:36.853Z,17.66
2022-07-31T23:59:05.190Z,17.63
